Messwerte San Andres

Temperatur

Temperatur
°C
1623708000 17.00 17.00 29
1623711600 18.00 18.00 29
1623715200 19.00 19.00 28
1623718800 20.00 20.00 28
1623722400 21.00 21.00 28
1623726000 22.00 22.00
1623729600 23.00 23.00 28
1623733200 0.00 0.00 28
1623736800 1.00 1.00 27
1623740400 2.00 2.00 27
1623744000 3.00 3.00
1623747600 4.00 4.00
1623751200 5.00 5.00 28
1623754800 6.00 6.00 27
1623758400 7.00 7.00 28
1623762000 8.00 8.00 28
1623765600 9.00 9.00 28
1623769200 10.00 10.00 29
1623772800 11.00 11.00 30
1623776400 12.00 12.00 31
1623780000 13.00 13.00 31
1623783600 14.00 14.00 31
1623787200 15.00 15.00 30
1623790800 16.00 16.00 29

Aktuellste Messwerte

Wettercharakter
Wetter: freundlich
Temperatur
29 °C
Feuchtigkeit
85 %
Wind
20 km/hWindrichtung: Südost
Luftdruck
1011 hPa
Messzeit: 15. Juni 2021, 16.00Datenquelle: METAR

Weitere Messstationen in der Nähe

Messstation Temperatur Entfernung
Bluefields 27 °C 232 km
Puerto Cabezas 26 °C 265 km
Puerto Limón 30 °C 321 km
San José 22 °C 394 km
San José – Juan Santamaria 23 °C 397 km
Juigalpa 33 °C 400 km
Liberia 27 °C 459 km

Wind

Windrichtung Böen Mittelwind
° km/h km/h
1623708000 17.00 16.00 - 17.00 120° 15
1623711600 18.00 17.00 - 18.00 120° 15
1623715200 19.00 18.00 - 19.00 110° 10
1623718800 20.00 19.00 - 20.00 100° 15
1623722400 21.00 20.00 - 21.00 140° 15
1623726000 22.00 21.00 - 22.00
1623729600 23.00 22.00 - 23.00 110° 10
1623733200 0.00 23.00 - 0.00 110° 15
1623736800 1.00 0.00 - 1.00 90° 5
1623740400 2.00 1.00 - 2.00 100° 10
1623744000 3.00 2.00 - 3.00
1623747600 4.00 3.00 - 4.00 120° 15
1623751200 5.00 4.00 - 5.00 110° 5
1623754800 6.00 5.00 - 6.00 130° 5
1623758400 7.00 6.00 - 7.00 130° 10
1623762000 8.00 7.00 - 8.00 90° 10
1623765600 9.00 8.00 - 9.00 100° 10
1623769200 10.00 9.00 - 10.00 100° 10
1623772800 11.00 10.00 - 11.00 100° 15
1623776400 12.00 11.00 - 12.00 100° 20
1623780000 13.00 12.00 - 13.00 120° 10
1623783600 14.00 13.00 - 14.00 120° 15
1623787200 15.00 14.00 - 15.00 110° 10
1623790800 16.00 15.00 - 16.00 150° 20

Ihre Wetterstation

Fehlt Ihre Wetterstation auf unserem Portal?

Schreiben Sie an network@meteonews.ch

Klima

Wann ist es am wärmsten? Wann regnet es am wenigsten? Unsere Klimadaten geben Auskunft.